Time;durP1;ratioP1;P1;durP2;ratioP2;P2;SDS_P1;SDS_P2;PMS_P1;PMS_P2;Temp;Humidity;BMP_temperature;BMP_pressure;BME280_temperature;BME280_humidity;BME280_pressure;Samples;Min_cycle;Max_cycle;Signal;HPM_P1;HPM_P2
2022/02/02 00:00:37;;;;;;;;;;;;;;;6.72;100.00;101016.28;2567097;30;137127;-40
2022/02/02 00:03:10;;;;;;;;;;;;;;;6.74;100.00;101018.78;2568954;30;138258;-40
2022/02/02 00:08:22;;;;;;;;;;;;;;;6.70;100.00;101037.31;2567532;30;137125;-40
2022/02/02 00:13:56;;;;;;;;;;;;;;;6.65;100.00;101042.44;2567311;30;137020;-40
2022/02/02 00:19:00;;;;;;;;;;;;;;;6.68;100.00;101055.63;2568000;30;138301;-40
2022/02/02 00:21:43;;;;;;;;;;;;;;;6.66;100.00;101060.38;2568499;30;137425;-41
2022/02/02 00:24:28;;;;;;;;;;;;;;;6.61;97.82;101068.19;2568195;30;139391;-40
2022/02/02 00:26:59;;;;;;;;;;;;;;;6.66;97.92;101067.66;2568621;30;138184;-40
2022/02/02 00:29:34;;;;;;;;;;;;;;;6.57;97.84;101056.88;2569210;30;136980;-40
2022/02/02 00:32:15;;;;;;;;;;;;;;;6.52;98.19;101072.00;2567293;30;138670;-40
2022/02/02 00:34:43;;;;;;;;;;;;;;;6.45;99.47;101066.44;2568548;30;136704;-40
2022/02/02 00:37:12;;;;;;;;;;;;;;;6.44;99.70;101071.03;2568156;30;137136;-40
2022/02/02 00:39:39;;;;;;;;;;;;;;;6.44;99.68;101062.03;2567669;30;138575;-40
2022/02/02 00:42:07;;;;;;;;;;;;;;;6.43;100.00;101063.06;2567851;30;137855;-40
2022/02/02 00:44:41;;;;;;;;;;;;;;;6.39;100.00;101070.72;2568752;30;138468;-40
2022/02/02 00:47:13;;;;;;;;;;;;;;;6.37;100.00;101070.06;2568630;30;137211;-40
2022/02/02 00:49:41;;;;;;;;;;;;;;;6.23;100.00;101070.81;2568999;30;139306;-40
2022/02/02 00:52:10;;;;;;;;;;;;;;;6.17;100.00;101067.81;2567938;30;136999;-40
2022/02/02 00:54:37;;;;;;;;;;;;;;;6.17;100.00;101081.34;2568463;30;138372;-40
2022/02/02 00:57:05;;;;;;;;;;;;;;;6.15;100.00;101068.97;2567889;30;137945;-40
2022/02/02 00:59:33;;;;;;;;;;;;;;;6.06;100.00;101078.19;2568187;30;138354;-40
2022/02/02 01:02:02;;;;;;;;;;;;;;;6.07;100.00;101083.41;2568374;30;137789;-40
2022/02/02 01:04:29;;;;;;;;;;;;;;;6.01;100.00;101084.13;2568658;30;137190;-40
2022/02/02 01:10:15;;;;;;;;;;;;;;;5.99;100.00;101094.25;2567141;30;138367;-40
2022/02/02 01:13:04;;;;;;;;;;;;;;;5.89;100.00;101086.34;2565835;30;137292;-40
2022/02/02 01:20:53;;;;;;;;;;;;;;;5.97;100.00;101072.78;2569369;30;138102;-40
2022/02/02 01:28:38;;;;;;;;;;;;;;;6.08;100.00;101082.38;2567891;30;136960;-37
2022/02/02 01:31:07;;;;;;;;;;;;;;;6.13;100.00;101088.16;2565438;30;137915;-38
2022/02/02 01:33:34;;;;;;;;;;;;;;;6.11;100.00;101086.63;2567674;30;137042;-38
2022/02/02 01:36:09;;;;;;;;;;;;;;;6.15;100.00;101082.53;2568913;30;139071;-38
2022/02/02 01:38:41;;;;;;;;;;;;;;;6.17;100.00;101092.19;2568715;30;137186;-37
2022/02/02 01:41:17;;;;;;;;;;;;;;;6.17;100.00;101097.59;2568357;30;138325;-38
2022/02/02 01:43:58;;;;;;;;;;;;;;;6.21;100.00;101097.25;2568215;30;137947;-37
2022/02/02 01:46:31;;;;;;;;;;;;;;;6.15;100.00;101087.94;2568508;30;138184;-38
2022/02/02 01:49:30;;;;;;;;;;;;;;;6.26;100.00;101097.56;2567541;30;137201;-38
2022/02/02 01:52:20;;;;;;;;;;;;;;;6.27;100.00;101099.25;2567051;30;138482;-37
2022/02/02 01:57:40;;;;;;;;;;;;;;;6.26;100.00;101109.25;2568392;30;138690;-38
2022/02/02 02:00:04;;;;;;;;;;;;;;;6.30;100.00;101113.28;2568467;30;137005;-38
2022/02/02 02:02:31;;;;;;;;;;;;;;;6.24;100.00;101114.00;2566728;30;138296;-37
2022/02/02 02:04:59;;;;;;;;;;;;;;;6.24;100.00;101118.56;2570047;30;137039;-38
2022/02/02 02:07:27;;;;;;;;;;;;;;;6.25;100.00;101110.28;2567665;30;138475;-38
2022/02/02 02:09:58;;;;;;;;;;;;;;;6.27;100.00;101123.63;2567613;30;137791;-38
2022/02/02 02:12:36;;;;;;;;;;;;;;;6.24;100.00;101114.00;2567965;30;139114;-37
2022/02/02 02:15:07;;;;;;;;;;;;;;;6.25;100.00;101121.13;2568610;30;137325;-38
2022/02/02 02:17:35;;;;;;;;;;;;;;;6.26;100.00;101105.69;2567648;30;138277;-38
2022/02/02 02:20:03;;;;;;;;;;;;;;;6.28;100.00;101115.34;2568930;30;137421;-37
2022/02/02 02:22:38;;;;;;;;;;;;;;;6.33;100.00;101125.63;2568999;30;139522;-38
2022/02/02 02:25:06;;;;;;;;;;;;;;;6.29;100.00;101122.44;2569096;30;137301;-38
2022/02/02 02:27:33;;;;;;;;;;;;;;;6.31;100.00;101119.53;2566740;30;138932;-38
2022/02/02 02:30:15;;;;;;;;;;;;;;;6.30;100.00;101131.41;2569233;30;136956;-38
2022/02/02 02:33:11;;;;;;;;;;;;;;;6.25;100.00;101115.69;2568669;30;139146;-37
2022/02/02 02:35:57;;;;;;;;;;;;;;;6.28;100.00;101111.78;2566599;30;137209;-38
2022/02/02 02:57:52;;;;;;;;;;;;;;;6.13;100.00;101145.03;2569433;30;137166;-38
2022/02/02 03:30:53;;;;;;;;;;;;;;;6.15;100.00;101139.44;2567908;30;137074;-38
2022/02/02 03:53:22;;;;;;;;;;;;;;;6.16;100.00;101157.38;2568742;30;136928;-38
2022/02/02 04:06:09;;;;;;;;;;;;;;;6.07;100.00;101148.41;2566502;30;139270;-37
2022/02/02 04:08:39;;;;;;;;;;;;;;;5.98;100.00;101155.72;2568496;30;137093;-38
2022/02/02 04:11:25;;;;;;;;;;;;;;;6.02;100.00;101153.53;2568396;30;139110;-37
2022/02/02 05:08:18;;;;;;;;;;;;;;;5.94;100.00;101189.56;2567880;30;137532;-38
2022/02/02 05:19:25;;;;;;;;;;;;;;;5.86;100.00;101198.56;2567183;30;137846;-38
2022/02/02 05:22:48;;;;;;;;;;;;;;;5.81;100.00;101213.63;2568301;30;138962;-38
2022/02/02 05:51:53;;;;;;;;;;;;;;;5.79;100.00;101245.47;2566377;30;137969;-38
2022/02/02 05:54:21;;;;;;;;;;;;;;;5.83;100.00;101244.94;2567663;30;137588;-37
2022/02/02 05:56:50;;;;;;;;;;;;;;;5.80;100.00;101247.16;2568110;30;136809;-38
2022/02/02 05:59:19;;;;;;;;;;;;;;;5.84;100.00;101260.19;2568612;30;138217;-38
2022/02/02 06:01:55;;;;;;;;;;;;;;;5.90;100.00;101245.97;2568397;30;137126;-38
2022/02/02 06:04:24;;;;;;;;;;;;;;;5.88;100.00;101271.50;2567203;30;138162;-37
2022/02/02 06:06:54;;;;;;;;;;;;;;;5.82;100.00;101266.78;2567381;30;136941;-38
2022/02/02 06:09:29;;;;;;;;;;;;;;;5.83;100.00;101274.72;2568256;30;138176;-38
2022/02/02 06:11:57;;;;;;;;;;;;;;;5.91;100.00;101282.00;2567166;30;137180;-37
2022/02/02 06:14:27;;;;;;;;;;;;;;;5.95;100.00;101279.81;2568511;30;138272;-38
2022/02/02 06:16:59;;;;;;;;;;;;;;;5.90;100.00;101270.34;2568913;30;136991;-38
2022/02/02 06:19:27;;;;;;;;;;;;;;;5.88;100.00;101272.38;2568755;30;138583;-37
2022/02/02 06:22:10;;;;;;;;;;;;;;;5.93;100.00;101287.25;2566740;30;137967;-38
2022/02/02 06:24:46;;;;;;;;;;;;;;;5.93;100.00;101281.84;2570420;30;138540;-38
2022/02/02 06:27:34;;;;;;;;;;;;;;;5.90;100.00;101280.31;2569598;30;136894;-38
2022/02/02 06:30:06;;;;;;;;;;;;;;;5.89;100.00;101284.91;2570633;30;137361;-38
2022/02/02 06:32:37;;;;;;;;;;;;;;;5.88;100.00;101285.06;2565970;30;137320;-37
2022/02/02 06:35:06;;;;;;;;;;;;;;;5.90;100.00;101274.88;2568488;30;140066;-38
2022/02/02 06:37:38;;;;;;;;;;;;;;;5.75;100.00;101262.06;2569504;30;136837;-38
2022/02/02 06:40:06;;;;;;;;;;;;;;;5.77;100.00;101283.53;2568917;30;137538;-38
2022/02/02 06:42:36;;;;;;;;;;;;;;;5.82;100.00;101289.28;2568961;30;137045;-38
2022/02/02 06:45:04;;;;;;;;;;;;;;;5.84;100.00;101291.81;2568561;30;138299;-37
2022/02/02 06:47:34;;;;;;;;;;;;;;;5.82;100.00;101307.41;2568599;30;136694;-37
2022/02/02 06:50:20;;;;;;;;;;;;;;;5.80;100.00;101312.13;2570305;30;139011;-38
2022/02/02 06:53:07;;;;;;;;;;;;;;;5.76;100.00;101306.22;2568417;30;138264;-38
2022/02/02 06:55:45;;;;;;;;;;;;;;;5.75;100.00;101307.22;2569532;30;138308;-38
2022/02/02 06:58:38;;;;;;;;;;;;;;;5.76;100.00;101304.38;2567606;30;136733;-38
2022/02/02 07:01:34;;;;;;;;;;;;;;;5.73;100.00;101311.97;2568393;30;138463;-38
2022/02/02 07:09:20;;;;;;;;;;;;;;;5.74;100.00;101313.66;2566599;30;137197;-38
2022/02/02 07:17:20;;;;;;;;;;;;;;;5.86;100.00;101339.41;2568438;30;138624;-38
2022/02/02 07:25:28;;;;;;;;;;;;;;;5.79;100.00;101356.47;2567929;30;137220;-41
2022/02/02 07:28:14;;;;;;;;;;;;;;;5.74;100.00;101357.84;2568496;30;137919;-41
2022/02/02 07:30:54;;;;;;;;;;;;;;;5.74;100.00;101368.66;2566152;30;138194;-41
2022/02/02 07:33:29;;;;;;;;;;;;;;;5.71;100.00;101371.72;2568815;30;138601;-41
2022/02/02 07:36:05;;;;;;;;;;;;;;;5.67;100.00;101364.09;2567859;30;138003;-41
2022/02/02 07:38:52;;;;;;;;;;;;;;;5.68;100.00;101373.91;2568664;30;137133;-41
2022/02/02 07:41:24;;;;;;;;;;;;;;;5.66;100.00;101387.59;2568135;30;136917;-40
2022/02/02 07:44:00;;;;;;;;;;;;;;;5.59;100.00;101387.44;2567510;30;138794;-41
2022/02/02 07:46:29;;;;;;;;;;;;;;;5.57;100.00;101396.72;2567350;30;137112;-41
2022/02/02 07:48:57;;;;;;;;;;;;;;;5.54;100.00;101391.63;2570011;30;139204;-40
2022/02/02 07:51:27;;;;;;;;;;;;;;;5.51;100.00;101392.78;2568166;30;137330;-41
2022/02/02 07:53:58;;;;;;;;;;;;;;;5.60;100.00;101396.38;2567605;30;137792;-41
2022/02/02 07:56:40;;;;;;;;;;;;;;;5.55;100.00;101388.75;2568355;30;137805;-41
2022/02/02 07:59:30;;;;;;;;;;;;;;;5.53;100.00;101393.47;2569829;30;139206;-41
2022/02/02 08:01:59;;;;;;;;;;;;;;;5.53;100.00;101403.47;2566734;30;137487;-41
2022/02/02 08:04:29;;;;;;;;;;;;;;;5.57;100.00;101404.84;2568291;30;137834;-41
2022/02/02 08:06:58;;;;;;;;;;;;;;;5.57;100.00;101400.28;2569620;30;136837;-41
2022/02/02 08:09:39;;;;;;;;;;;;;;;5.57;100.00;101405.69;2568464;30;139144;-41
2022/02/02 08:12:14;;;;;;;;;;;;;;;5.54;100.00;101408.69;2566940;30;137283;-41
2022/02/02 08:14:43;;;;;;;;;;;;;;;5.61;100.00;101417.03;2567526;30;138331;-40
2022/02/02 08:17:11;;;;;;;;;;;;;;;5.66;100.00;101421.94;2568065;30;136853;-41
2022/02/02 08:19:40;;;;;;;;;;;;;;;5.76;100.00;101417.22;2568627;30;137056;-41
2022/02/02 08:22:08;;;;;;;;;;;;;;;5.85;100.00;101424.38;2568475;30;137887;-40
2022/02/02 08:24:36;;;;;;;;;;;;;;;5.96;100.00;101420.47;2567475;30;138263;-40
2022/02/02 08:27:04;;;;;;;;;;;;;;;6.01;100.00;101431.69;2569620;30;136884;-41
2022/02/02 08:29:32;;;;;;;;;;;;;;;6.09;100.00;101430.00;2568617;30;137415;-41
2022/02/02 08:32:01;;;;;;;;;;;;;;;6.10;100.00;101431.69;2567869;30;137137;-41
2022/02/02 08:34:29;;;;;;;;;;;;;;;6.14;100.00;101441.19;2568416;30;139149;-41
2022/02/02 08:36:58;;;;;;;;;;;;;;;6.19;100.00;101442.38;2565468;30;137340;-41
2022/02/02 08:39:43;;;;;;;;;;;;;;;6.16;100.00;101440.00;2567940;30;137505;-41
2022/02/02 08:42:14;;;;;;;;;;;;;;;6.11;100.00;101455.94;2567502;30;137334;-41
2022/02/02 08:45:01;;;;;;;;;;;;;;;6.12;100.00;101465.75;2565712;30;137233;-41
2022/02/02 08:47:30;;;;;;;;;;;;;;;6.18;100.00;101465.06;2567964;30;136824;-41
2022/02/02 08:50:01;;;;;;;;;;;;;;;6.28;100.00;101456.78;2567932;30;139117;-41
2022/02/02 08:52:44;;;;;;;;;;;;;;;6.43;100.00;101470.50;2566739;30;137275;-41
2022/02/02 09:00:50;;;;;;;;;;;;;;;6.82;100.00;101487.09;2568153;30;137654;-41
2022/02/02 09:06:04;;;;;;;;;;;;;;;6.88;99.94;101495.41;2567050;30;138223;-41
2022/02/02 09:08:33;;;;;;;;;;;;;;;6.90;99.68;101497.94;2568232;30;137033;-41
2022/02/02 09:35:43;;;;;;;;;;;;;;;7.06;100.00;101505.22;2567167;30;137017;-41
2022/02/02 09:38:11;;;;;;;;;;;;;;;7.07;100.00;101506.03;2568552;30;138135;-41
2022/02/02 09:43:13;;;;;;;;;;;;;;;7.15;100.00;101501.44;2565529;30;138540;-41
2022/02/02 09:45:41;;;;;;;;;;;;;;;7.24;100.00;101509.56;2568507;30;136846;-41
2022/02/02 09:48:19;;;;;;;;;;;;;;;7.34;99.93;101510.22;2567989;30;138984;-41
2022/02/02 09:50:52;;;;;;;;;;;;;;;7.39;100.00;101510.56;2566604;30;137201;-41
2022/02/02 09:53:33;;;;;;;;;;;;;;;7.42;100.00;101521.06;2568453;30;138403;-41
2022/02/02 10:05:12;;;;;;;;;;;;;;;7.29;100.00;101539.75;2568430;30;138250;-41
2022/02/02 10:15:35;;;;;;;;;;;;;;;7.38;100.00;101556.88;2568086;30;138334;-40
2022/02/02 10:18:06;;;;;;;;;;;;;;;7.38;100.00;101570.44;2567844;30;136928;-40
2022/02/02 10:20:36;;;;;;;;;;;;;;;7.35;100.00;101566.22;2566838;30;138395;-41
2022/02/02 10:23:05;;;;;;;;;;;;;;;7.34;100.00;101575.38;2569074;30;136960;-41
2022/02/02 10:25:36;;;;;;;;;;;;;;;7.36;100.00;101567.06;2567140;30;137325;-41
2022/02/02 10:28:08;;;;;;;;;;;;;;;7.41;100.00;101572.81;2568153;30;136898;-41
2022/02/02 10:30:37;;;;;;;;;;;;;;;7.41;100.00;101567.38;2564713;30;139563;-41
2022/02/02 10:33:05;;;;;;;;;;;;;;;7.40;100.00;101568.41;2567723;30;136967;-41
2022/02/02 10:35:43;;;;;;;;;;;;;;;7.41;99.92;101570.94;2568382;30;138415;-40
2022/02/02 10:38:22;;;;;;;;;;;;;;;7.47;99.75;101572.97;2568355;30;136845;-41
2022/02/02 10:43:36;;;;;;;;;;;;;;;7.49;99.16;101580.94;2569499;30;137234;-41
2022/02/02 10:46:08;;;;;;;;;;;;;;;7.48;98.53;101580.09;2568334;30;137055;-41
2022/02/02 10:48:45;;;;;;;;;;;;;;;7.47;98.59;101583.00;2568063;30;136979;-41
2022/02/02 10:51:29;;;;;;;;;;;;;;;7.47;99.45;101586.53;2568975;30;138198;-41
2022/02/02 10:55:14;;;;;;;;;;;;;;;7.54;99.79;101586.69;2568913;30;137095;-41
2022/02/02 10:58:00;;;;;;;;;;;;;;;7.57;99.65;101585.53;2568056;30;137417;-41
2022/02/02 11:00:13;;;;;;;;;;;;;;;7.59;97.61;101588.91;2568555;30;136869;-41
2022/02/02 11:08:15;;;;;;;;;;;;;;;7.91;97.40;101604.22;2567392;30;136911;-41
2022/02/02 11:10:43;;;;;;;;;;;;;;;7.95;96.95;101598.44;2568243;30;137315;-41
2022/02/02 11:13:12;;;;;;;;;;;;;;;8.04;97.00;101592.78;2568722;30;138222;-41
2022/02/02 11:15:44;;;;;;;;;;;;;;;8.08;95.28;101593.31;2568924;30;136838;-41
2022/02/02 11:18:24;;;;;;;;;;;;;;;8.18;95.22;101593.91;2570501;30;138096;-41
2022/02/02 11:20:52;;;;;;;;;;;;;;;8.35;94.65;101586.53;2567580;30;137911;-41
2022/02/02 11:23:21;;;;;;;;;;;;;;;8.49;93.86;101584.97;2568690;30;138284;-41
2022/02/02 11:25:50;;;;;;;;;;;;;;;8.57;95.03;101585.91;2569634;30;136988;-41
2022/02/02 11:28:22;;;;;;;;;;;;;;;8.55;93.18;101588.81;2568605;30;136740;-41
2022/02/02 11:30:50;;;;;;;;;;;;;;;8.56;91.53;101593.22;2568833;30;137332;-41
2022/02/02 11:33:20;;;;;;;;;;;;;;;8.56;90.44;101593.22;2569637;30;138335;-41
2022/02/02 11:35:52;;;;;;;;;;;;;;;8.46;89.08;101595.31;2568767;30;137066;-41
2022/02/02 11:38:40;;;;;;;;;;;;;;;8.60;89.52;101588.28;2568465;30;138446;-41
2022/02/02 11:46:50;;;;;;;;;;;;;;;8.86;88.74;101590.63;2567676;30;137288;-41
2022/02/02 11:49:28;;;;;;;;;;;;;;;9.07;86.68;101598.13;2567165;30;137322;-41
2022/02/02 11:51:58;;;;;;;;;;;;;;;9.25;85.03;101594.19;2569322;30;136947;-41
2022/02/02 11:54:32;;;;;;;;;;;;;;;9.44;83.67;101590.13;2568876;30;138496;-41
2022/02/02 11:57:09;;;;;;;;;;;;;;;9.56;82.06;101595.94;2567083;30;138157;-41
2022/02/02 12:00:11;;;;;;;;;;;;;;;9.66;81.45;101590.19;2568895;30;139541;-41
2022/02/02 12:08:35;;;;;;;;;;;;;;;10.03;79.13;101607.50;2569049;30;137082;-41
2022/02/02 13:00:12;;;;;;;;;;;;;;;8.68;83.36;101596.38;2565936;30;138387;-41
2022/02/02 13:02:40;;;;;;;;;;;;;;;8.61;83.52;101601.69;2568219;30;138012;-41
2022/02/02 13:05:10;;;;;;;;;;;;;;;8.53;84.40;101612.63;2566536;30;137314;-41
2022/02/02 13:07:40;;;;;;;;;;;;;;;8.50;85.22;101602.09;2568197;30;137930;-41
2022/02/02 13:10:10;;;;;;;;;;;;;;;8.41;83.97;101601.28;2568106;30;137792;-41
2022/02/02 13:12:53;;;;;;;;;;;;;;;8.42;84.67;101597.53;2567779;30;137198;-41
2022/02/02 13:15:32;;;;;;;;;;;;;;;8.40;85.12;101587.88;2565996;30;138147;-41
2022/02/02 13:20:35;;;;;;;;;;;;;;;8.66;85.67;101590.28;2567837;30;136910;-41
2022/02/02 13:23:12;;;;;;;;;;;;;;;8.76;83.17;101590.91;2567904;30;137278;-41
2022/02/02 13:27:27;;;;;;;;;;;;;;;9.13;83.13;101591.06;2567736;30;136742;-39
2022/02/02 13:29:56;;;;;;;;;;;;;;;9.17;82.07;101589.69;2566986;30;137071;-39
2022/02/02 13:32:43;;;;;;;;;;;;;;;9.31;83.30;101590.75;2568051;30;137438;-39
2022/02/02 13:35:27;;;;;;;;;;;;;;;9.41;81.22;101592.34;2567484;30;138211;-39
2022/02/02 13:38:18;;;;;;;;;;;;;;;9.42;79.46;101599.50;2567362;30;139119;-39
2022/02/02 13:44:07;;;;;;;;;;;;;;;9.52;78.42;101600.06;2567671;30;137343;-36
2022/02/02 13:47:00;;;;;;;;;;;;;;;9.45;74.12;101599.97;2569395;30;136773;-39
2022/02/02 13:50:12;;;;;;;;;;;;;;;9.49;76.86;101605.88;2566841;30;138353;-38
2022/02/02 13:53:08;;;;;;;;;;;;;;;9.42;74.77;101611.25;2568402;30;137153;-39
2022/02/02 13:58:18;;;;;;;;;;;;;;;9.43;74.10;101612.06;2566309;30;138957;-36
2022/02/02 14:01:04;;;;;;;;;;;;;;;9.44;75.67;101605.59;2568151;30;137668;-37
2022/02/02 14:06:38;;;;;;;;;;;;;;;9.56;76.31;101612.28;2569009;30;137373;-36
2022/02/02 14:26:05;;;;;;;;;;;;;;;9.34;72.20;101625.78;2568924;30;137354;-36
2022/02/02 14:31:15;;;;;;;;;;;;;;;9.29;72.73;101638.25;2568813;30;137167;-37
2022/02/02 14:33:57;;;;;;;;;;;;;;;9.31;73.02;101647.09;2567870;30;138227;-36
2022/02/02 14:36:29;;;;;;;;;;;;;;;9.31;73.56;101664.28;2568035;30;138037;-36
2022/02/02 14:44:01;;;;;;;;;;;;;;;9.30;74.15;101656.28;2565883;30;139257;-36
2022/02/02 14:46:50;;;;;;;;;;;;;;;9.34;73.70;101657.59;2569115;30;137544;-36
2022/02/02 14:49:24;;;;;;;;;;;;;;;9.31;74.83;101661.56;2569160;30;137576;-36
2022/02/02 14:52:27;;;;;;;;;;;;;;;9.30;76.22;101668.03;2569176;30;136603;-37
2022/02/02 14:55:15;;;;;;;;;;;;;;;9.38;75.38;101669.00;2569201;30;137321;-36
2022/02/02 15:28:16;;;;;;;;;;;;;;;9.00;73.77;101689.69;2569112;30;138399;-39
2022/02/02 15:33:22;;;;;;;;;;;;;;;8.72;76.03;101689.38;2568895;30;138299;-39
2022/02/02 15:36:00;;;;;;;;;;;;;;;8.62;75.22;101701.34;2568205;30;136989;-40
2022/02/02 15:38:29;;;;;;;;;;;;;;;8.55;75.38;101694.06;2569833;30;138433;-38
2022/02/02 15:41:03;;;;;;;;;;;;;;;8.43;76.13;101699.84;2568362;30;136961;-39
2022/02/02 15:43:53;;;;;;;;;;;;;;;8.33;77.43;101699.22;2568562;30;139377;-39
2022/02/02 16:00:32;;;;;;;;;;;;;;;7.63;82.88;101686.13;2568403;30;138300;-36
2022/02/02 16:03:14;;;;;;;;;;;;;;;7.49;83.77;101695.00;2568414;30;137352;-36
2022/02/02 16:08:12;;;;;;;;;;;;;;;7.25;85.69;101693.97;2566859;30;137499;-36
2022/02/02 16:10:52;;;;;;;;;;;;;;;7.16;86.55;101703.13;2568779;30;138538;-36
2022/02/02 16:16:14;;;;;;;;;;;;;;;6.98;86.72;101711.41;2567851;30;139056;-36
2022/02/02 16:19:14;;;;;;;;;;;;;;;6.88;88.02;101706.13;2568994;30;137135;-36
2022/02/02 16:38:17;;;;;;;;;;;;;;;5.88;93.08;101696.72;2568041;30;138929;-36
2022/02/02 16:40:49;;;;;;;;;;;;;;;5.72;93.50;101694.75;2564405;30;137420;-36
2022/02/02 16:43:19;;;;;;;;;;;;;;;5.58;94.76;101698.91;2569353;30;137112;-36
2022/02/02 16:45:49;;;;;;;;;;;;;;;5.42;95.04;101700.47;2569897;30;137155;-36
2022/02/02 16:48:18;;;;;;;;;;;;;;;5.28;95.37;101687.50;2569412;30;138333;-36
2022/02/02 16:50:49;;;;;;;;;;;;;;;5.17;96.30;101692.16;2568767;30;137269;-36
2022/02/02 17:34:25;;;;;;;;;;;;;;;3.95;100.00;101734.66;2569153;30;137035;-36
2022/02/02 17:39:51;;;;;;;;;;;;;;;3.83;100.00;101742.06;2569346;30;137290;-40
2022/02/02 17:45:09;;;;;;;;;;;;;;;3.72;100.00;101736.84;2569046;30;136710;-36
2022/02/02 18:12:27;;;;;;;;;;;;;;;3.39;100.00;101760.56;2568419;30;137328;-38
2022/02/02 18:21:01;;;;;;;;;;;;;;;3.42;100.00;101744.09;2566325;30;138538;-38
2022/02/02 18:23:42;;;;;;;;;;;;;;;3.42;100.00;101755.75;2567894;30;137542;-39
2022/02/02 18:47:33;;;;;;;;;;;;;;;3.47;100.00;101754.47;2566007;30;138553;-35
2022/02/02 18:53:13;;;;;;;;;;;;;;;3.58;100.00;101760.56;2567484;30;138418;-36
2022/02/02 19:00:59;;;;;;;;;;;;;;;3.71;100.00;101757.56;2567985;30;137272;-38
2022/02/02 19:03:45;;;;;;;;;;;;;;;3.74;100.00;101757.28;2569850;30;138493;-38
2022/02/02 19:55:46;;;;;;;;;;;;;;;5.11;100.00;101754.13;2568891;30;136975;-41
2022/02/02 20:12:05;;;;;;;;;;;;;;;5.38;100.00;101742.38;2564913;30;138212;-40
2022/02/02 20:14:33;;;;;;;;;;;;;;;5.39;100.00;101744.06;2568548;30;138801;-40
2022/02/02 20:17:03;;;;;;;;;;;;;;;5.39;100.00;101748.66;2569627;30;137949;-40
2022/02/02 20:19:32;;;;;;;;;;;;;;;5.41;100.00;101752.88;2568005;30;138341;-40
2022/02/02 20:22:00;;;;;;;;;;;;;;;5.46;100.00;101763.25;2569365;30;137298;-40
2022/02/02 20:24:37;;;;;;;;;;;;;;;5.50;100.00;101764.63;2568404;30;138709;-40
2022/02/02 20:27:07;;;;;;;;;;;;;;;5.54;100.00;101763.31;2566212;30;137269;-41
2022/02/02 20:29:35;;;;;;;;;;;;;;;5.56;100.00;101752.34;2566730;30;138342;-40
2022/02/02 20:32:04;;;;;;;;;;;;;;;5.63;100.00;101750.72;2565813;30;137862;-40
2022/02/02 20:34:32;;;;;;;;;;;;;;;5.64;100.00;101748.88;2569355;30;138601;-40
2022/02/02 20:37:00;;;;;;;;;;;;;;;5.67;100.00;101740.41;2568112;30;137056;-41
2022/02/02 20:42:15;;;;;;;;;;;;;;;5.65;100.00;101745.97;2567882;30;137287;-41
2022/02/02 20:44:58;;;;;;;;;;;;;;;5.65;100.00;101743.28;2567216;30;138194;-40
2022/02/02 21:02:15;;;;;;;;;;;;;;;5.74;100.00;101753.19;2567615;30;137381;-41
2022/02/02 21:10:02;;;;;;;;;;;;;;;5.83;100.00;101769.47;2567009;30;138115;-41
2022/02/02 21:15:24;;;;;;;;;;;;;;;5.90;100.00;101759.69;2567392;30;137240;-41
2022/02/02 21:17:54;;;;;;;;;;;;;;;5.92;100.00;101765.81;2568242;30;137014;-40
2022/02/02 21:23:28;;;;;;;;;;;;;;;5.99;100.00;101764.19;2567699;30;138491;-40
2022/02/02 21:25:59;;;;;;;;;;;;;;;6.00;100.00;101765.03;2567498;30;137946;-41
2022/02/02 21:28:27;;;;;;;;;;;;;;;6.01;100.00;101766.75;2569527;30;138556;-41
2022/02/02 21:30:55;;;;;;;;;;;;;;;6.00;100.00;101767.72;2566013;30;137478;-40
2022/02/02 21:33:23;;;;;;;;;;;;;;;6.06;100.00;101760.88;2569064;30;137909;-40
2022/02/02 21:35:51;;;;;;;;;;;;;;;6.04;100.00;101764.59;2568984;30;136739;-41
2022/02/02 21:38:52;;;;;;;;;;;;;;;6.06;100.00;101761.69;2569354;30;137414;-41
2022/02/02 21:41:16;;;;;;;;;;;;;;;6.10;100.00;101763.09;2568353;30;137080;-40
2022/02/02 21:43:44;;;;;;;;;;;;;;;6.12;100.00;101755.66;2568573;30;137855;-41
2022/02/02 21:46:12;;;;;;;;;;;;;;;6.15;100.00;101755.34;2568204;30;136677;-40
2022/02/02 21:48:41;;;;;;;;;;;;;;;6.19;100.00;101758.56;2568187;30;138251;-41
2022/02/02 21:51:20;;;;;;;;;;;;;;;6.20;100.00;101760.25;2568236;30;137187;-40
2022/02/02 21:53:47;;;;;;;;;;;;;;;6.19;100.00;101756.72;2567223;30;138555;-40
2022/02/02 21:56:15;;;;;;;;;;;;;;;6.23;100.00;101761.81;2566280;30;137564;-41
2022/02/02 21:58:43;;;;;;;;;;;;;;;6.24;100.00;101760.81;2568893;30;138458;-41
2022/02/02 22:01:11;;;;;;;;;;;;;;;6.25;100.00;101757.94;2568546;30;137408;-40
2022/02/02 22:03:38;;;;;;;;;;;;;;;6.22;100.00;101755.53;2565487;30;138382;-40
2022/02/02 22:06:06;;;;;;;;;;;;;;;6.26;100.00;101764.19;2568740;30;138348;-40
2022/02/02 22:08:34;;;;;;;;;;;;;;;6.35;100.00;101765.09;2568063;30;139026;-40
2022/02/02 22:11:03;;;;;;;;;;;;;;;6.42;100.00;101767.00;2568126;30;137564;-40
2022/02/02 22:13:38;;;;;;;;;;;;;;;6.41;100.00;101761.72;2568038;30;138420;-41
2022/02/02 22:16:11;;;;;;;;;;;;;;;6.44;100.00;101769.53;2568454;30;136705;-41
2022/02/02 22:18:40;;;;;;;;;;;;;;;6.47;100.00;101767.38;2567954;30;137515;-41
2022/02/02 22:21:08;;;;;;;;;;;;;;;6.43;100.00;101770.53;2568502;30;136925;-40
2022/02/02 22:23:37;;;;;;;;;;;;;;;6.43;100.00;101757.84;2567440;30;138334;-40
2022/02/02 22:26:04;;;;;;;;;;;;;;;6.46;100.00;101767.50;2567315;30;138034;-41
2022/02/02 22:28:32;;;;;;;;;;;;;;;6.47;100.00;101775.50;2567486;30;136786;-40
2022/02/02 22:31:01;;;;;;;;;;;;;;;6.45;100.00;101763.97;2567130;30;138084;-40
2022/02/02 22:33:29;;;;;;;;;;;;;;;6.44;100.00;101766.81;2567648;30;137186;-40
2022/02/02 22:35:57;;;;;;;;;;;;;;;6.42;100.00;101763.44;2568375;30;137198;-41
2022/02/02 22:38:25;;;;;;;;;;;;;;;6.42;100.00;101758.00;2570139;30;138982;-40
2022/02/02 22:40:55;;;;;;;;;;;;;;;6.43;100.00;101757.00;2569126;30;137100;-40
2022/02/02 22:43:24;;;;;;;;;;;;;;;6.39;100.00;101755.63;2568757;30;138356;-40
2022/02/02 22:45:52;;;;;;;;;;;;;;;6.41;100.00;101754.47;2569388;30;136789;-40
2022/02/02 22:48:23;;;;;;;;;;;;;;;6.39;100.00;101748.34;2568051;30;137479;-40
2022/02/02 22:50:51;;;;;;;;;;;;;;;6.43;100.00;101747.00;2567810;30;137107;-40
2022/02/02 22:53:23;;;;;;;;;;;;;;;6.42;100.00;101744.44;2568458;30;136838;-40
2022/02/02 22:55:51;;;;;;;;;;;;;;;6.44;100.00;101748.72;2569500;30;137375;-40
2022/02/02 22:58:20;;;;;;;;;;;;;;;6.45;100.00;101750.41;2568300;30;137249;-40
2022/02/02 23:00:49;;;;;;;;;;;;;;;6.45;100.00;101745.00;2568415;30;137373;-40
2022/02/02 23:03:20;;;;;;;;;;;;;;;6.46;100.00;101743.97;2569503;30;138249;-40
2022/02/02 23:05:54;;;;;;;;;;;;;;;6.52;100.00;101749.75;2569232;30;137211;-40
2022/02/02 23:08:25;;;;;;;;;;;;;;;6.50;100.00;101744.50;2568152;30;137852;-40
2022/02/02 23:10:54;;;;;;;;;;;;;;;6.51;100.00;101743.50;2568273;30;137543;-40
2022/02/02 23:13:22;;;;;;;;;;;;;;;6.52;100.00;101738.91;2568399;30;137247;-40
2022/02/02 23:15:58;;;;;;;;;;;;;;;6.58;100.00;101735.53;2568674;30;137027;-40
2022/02/02 23:18:29;;;;;;;;;;;;;;;6.59;100.00;101739.94;2568583;30;138300;-40
2022/02/02 23:20:59;;;;;;;;;;;;;;;6.60;100.00;101741.66;2568847;30;137003;-40
2022/02/02 23:23:31;;;;;;;;;;;;;;;6.65;100.00;101739.31;2568057;30;137306;-41
2022/02/02 23:26:01;;;;;;;;;;;;;;;6.64;100.00;101744.88;2566275;30;136769;-40
2022/02/02 23:28:31;;;;;;;;;;;;;;;6.68;100.00;101738.97;2567907;30;138956;-40
2022/02/02 23:31:03;;;;;;;;;;;;;;;6.72;100.00;101739.47;2569853;30;137268;-40
2022/02/02 23:33:31;;;;;;;;;;;;;;;6.67;100.00;101731.00;2569265;30;137312;-40
2022/02/02 23:35:59;;;;;;;;;;;;;;;6.65;100.00;101723.03;2569081;30;137961;-40
2022/02/02 23:38:27;;;;;;;;;;;;;;;6.67;100.00;101725.56;2567773;30;138401;-40
2022/02/02 23:43:41;;;;;;;;;;;;;;;6.69;100.00;101723.53;2569485;30;137445;-41